sensor_id;sensor_type;location;lat;lon;timestamp;temperature;humidity
16879;DHT22;8556;52.218;9.884;2023-07-09T00:02:14;17.60;99.90
16879;DHT22;8556;52.218;9.884;2023-07-09T00:04:41;17.60;99.90
16879;DHT22;8556;52.218;9.884;2023-07-09T00:07:21;17.60;99.90
16879;DHT22;8556;52.218;9.884;2023-07-09T00:09:49;17.30;99.90
16879;DHT22;8556;52.218;9.884;2023-07-09T00:12:17;17.20;99.90
16879;DHT22;8556;52.218;9.884;2023-07-09T00:14:44;17.30;99.90
16879;DHT22;8556;52.218;9.884;2023-07-09T00:17:15;17.50;99.90
16879;DHT22;8556;52.218;9.884;2023-07-09T00:19:45;17.80;99.90
16879;DHT22;8556;52.218;9.884;2023-07-09T00:22:15;17.70;99.90
16879;DHT22;8556;52.218;9.884;2023-07-09T00:24:47;17.50;99.90
16879;DHT22;8556;52.218;9.884;2023-07-09T00:27:17;17.20;99.90
16879;DHT22;8556;52.218;9.884;2023-07-09T00:29:44;17.40;99.90
16879;DHT22;8556;52.218;9.884;2023-07-09T00:32:14;17.40;99.90
16879;DHT22;8556;52.218;9.884;2023-07-09T00:34:42;17.60;99.90
16879;DHT22;8556;52.218;9.884;2023-07-09T00:37:14;17.70;99.90
16879;DHT22;8556;52.218;9.884;2023-07-09T00:39:42;17.80;99.90
16879;DHT22;8556;52.218;9.884;2023-07-09T00:42:12;17.80;99.90
16879;DHT22;8556;52.218;9.884;2023-07-09T00:44:43;17.70;99.90
16879;DHT22;8556;52.218;9.884;2023-07-09T00:47:36;17.10;99.90
16879;DHT22;8556;52.218;9.884;2023-07-09T00:50:11;17.20;99.90
16879;DHT22;8556;52.218;9.884;2023-07-09T00:52:46;17.20;99.90
16879;DHT22;8556;52.218;9.884;2023-07-09T00:55:20;17.20;99.90
16879;DHT22;8556;52.218;9.884;2023-07-09T00:57:50;17.20;99.90
16879;DHT22;8556;52.218;9.884;2023-07-09T01:00:22;17.40;99.90
16879;DHT22;8556;52.218;9.884;2023-07-09T01:02:52;17.20;99.90
16879;DHT22;8556;52.218;9.884;2023-07-09T01:05:18;17.10;99.90
16879;DHT22;8556;52.218;9.884;2023-07-09T01:07:46;17.10;99.90
16879;DHT22;8556;52.218;9.884;2023-07-09T01:10:16;17.00;99.90
16879;DHT22;8556;52.218;9.884;2023-07-09T01:12:44;16.90;99.90
16879;DHT22;8556;52.218;9.884;2023-07-09T01:15:12;16.80;99.90
16879;DHT22;8556;52.218;9.884;2023-07-09T01:17:40;16.80;99.90
16879;DHT22;8556;52.218;9.884;2023-07-09T01:20:15;16.90;99.90
16879;DHT22;8556;52.218;9.884;2023-07-09T01:22:44;17.00;99.90
16879;DHT22;8556;52.218;9.884;2023-07-09T01:25:14;17.20;99.90
16879;DHT22;8556;52.218;9.884;2023-07-09T01:27:45;17.40;99.90
16879;DHT22;8556;52.218;9.884;2023-07-09T01:30:16;17.20;99.90
16879;DHT22;8556;52.218;9.884;2023-07-09T01:32:47;17.10;99.90
16879;DHT22;8556;52.218;9.884;2023-07-09T01:35:17;17.10;99.90
16879;DHT22;8556;52.218;9.884;2023-07-09T01:37:46;17.30;99.90
16879;DHT22;8556;52.218;9.884;2023-07-09T01:40:15;17.30;99.90
16879;DHT22;8556;52.218;9.884;2023-07-09T01:42:42;17.40;99.90
16879;DHT22;8556;52.218;9.884;2023-07-09T01:45:10;17.20;99.90
16879;DHT22;8556;52.218;9.884;2023-07-09T01:47:38;17.20;99.90
16879;DHT22;8556;52.218;9.884;2023-07-09T01:50:06;16.80;99.90
16879;DHT22;8556;52.218;9.884;2023-07-09T01:52:34;16.90;99.90
16879;DHT22;8556;52.218;9.884;2023-07-09T01:55:02;16.90;99.90
16879;DHT22;8556;52.218;9.884;2023-07-09T01:57:30;16.90;99.90
16879;DHT22;8556;52.218;9.884;2023-07-09T02:00:03;16.80;99.90
16879;DHT22;8556;52.218;9.884;2023-07-09T02:02:31;17.00;99.90
16879;DHT22;8556;52.218;9.884;2023-07-09T02:04:59;17.10;99.90
16879;DHT22;8556;52.218;9.884;2023-07-09T02:07:26;17.10;99.90
16879;DHT22;8556;52.218;9.884;2023-07-09T02:09:53;17.00;99.90
16879;DHT22;8556;52.218;9.884;2023-07-09T02:12:21;17.00;99.90
16879;DHT22;8556;52.218;9.884;2023-07-09T02:14:48;16.90;99.90
16879;DHT22;8556;52.218;9.884;2023-07-09T02:17:15;17.10;99.90
16879;DHT22;8556;52.218;9.884;2023-07-09T02:19:43;17.00;99.90
16879;DHT22;8556;52.218;9.884;2023-07-09T02:22:10;16.50;99.90
16879;DHT22;8556;52.218;9.884;2023-07-09T02:24:37;16.50;99.90
16879;DHT22;8556;52.218;9.884;2023-07-09T02:27:06;16.50;99.90
16879;DHT22;8556;52.218;9.884;2023-07-09T02:29:35;16.60;99.90
16879;DHT22;8556;52.218;9.884;2023-07-09T02:32:02;16.70;99.90
16879;DHT22;8556;52.218;9.884;2023-07-09T02:34:29;16.60;99.90
16879;DHT22;8556;52.218;9.884;2023-07-09T02:36:58;15.80;99.90
16879;DHT22;8556;52.218;9.884;2023-07-09T02:39:25;16.10;99.90
16879;DHT22;8556;52.218;9.884;2023-07-09T02:41:52;16.40;99.90
16879;DHT22;8556;52.218;9.884;2023-07-09T02:44:19;16.40;99.90
16879;DHT22;8556;52.218;9.884;2023-07-09T02:46:48;16.40;99.90
16879;DHT22;8556;52.218;9.884;2023-07-09T02:49:15;16.30;99.90
16879;DHT22;8556;52.218;9.884;2023-07-09T02:51:42;16.30;99.90
16879;DHT22;8556;52.218;9.884;2023-07-09T02:54:09;16.30;99.90
16879;DHT22;8556;52.218;9.884;2023-07-09T02:56:36;15.80;99.90
16879;DHT22;8556;52.218;9.884;2023-07-09T02:59:03;15.30;99.90
16879;DHT22;8556;52.218;9.884;2023-07-09T03:01:30;15.30;99.90
16879;DHT22;8556;52.218;9.884;2023-07-09T03:04:00;15.70;99.90
16879;DHT22;8556;52.218;9.884;2023-07-09T03:06:27;15.90;99.90
16879;DHT22;8556;52.218;9.884;2023-07-09T03:08:54;15.50;99.90
16879;DHT22;8556;52.218;9.884;2023-07-09T03:11:21;15.20;99.90
16879;DHT22;8556;52.218;9.884;2023-07-09T03:13:48;15.50;99.90
16879;DHT22;8556;52.218;9.884;2023-07-09T03:16:15;15.50;99.90
16879;DHT22;8556;52.218;9.884;2023-07-09T03:18:44;15.40;99.90
16879;DHT22;8556;52.218;9.884;2023-07-09T03:21:13;15.60;99.90
16879;DHT22;8556;52.218;9.884;2023-07-09T03:23:40;15.80;99.90
16879;DHT22;8556;52.218;9.884;2023-07-09T03:26:07;16.00;99.90
16879;DHT22;8556;52.218;9.884;2023-07-09T03:28:34;16.00;99.90
16879;DHT22;8556;52.218;9.884;2023-07-09T03:31:01;16.10;99.90
16879;DHT22;8556;52.218;9.884;2023-07-09T03:33:27;16.00;99.90
16879;DHT22;8556;52.218;9.884;2023-07-09T03:35:54;15.90;99.90
16879;DHT22;8556;52.218;9.884;2023-07-09T03:38:23;15.80;99.90
16879;DHT22;8556;52.218;9.884;2023-07-09T03:40:50;15.50;99.90
16879;DHT22;8556;52.218;9.884;2023-07-09T03:43:18;15.50;99.90
16879;DHT22;8556;52.218;9.884;2023-07-09T03:45:46;15.70;99.90
16879;DHT22;8556;52.218;9.884;2023-07-09T03:48:14;15.80;99.90
16879;DHT22;8556;52.218;9.884;2023-07-09T03:50:42;16.00;99.90
16879;DHT22;8556;52.218;9.884;2023-07-09T03:53:09;16.10;99.90
16879;DHT22;8556;52.218;9.884;2023-07-09T03:55:38;16.20;99.90
16879;DHT22;8556;52.218;9.884;2023-07-09T03:58:06;16.50;99.90
16879;DHT22;8556;52.218;9.884;2023-07-09T04:00:34;16.40;99.90
16879;DHT22;8556;52.218;9.884;2023-07-09T04:03:01;16.50;99.90
16879;DHT22;8556;52.218;9.884;2023-07-09T04:05:28;16.60;99.90
16879;DHT22;8556;52.218;9.884;2023-07-09T04:07:54;16.60;99.90
16879;DHT22;8556;52.218;9.884;2023-07-09T04:10:22;16.70;99.90
16879;DHT22;8556;52.218;9.884;2023-07-09T04:12:50;16.80;99.90
16879;DHT22;8556;52.218;9.884;2023-07-09T04:15:17;17.30;99.90
16879;DHT22;8556;52.218;9.884;2023-07-09T04:17:44;17.60;99.90
16879;DHT22;8556;52.218;9.884;2023-07-09T04:20:11;17.70;99.90
16879;DHT22;8556;52.218;9.884;2023-07-09T04:22:38;17.80;99.90
16879;DHT22;8556;52.218;9.884;2023-07-09T04:25:06;19.10;99.90
16879;DHT22;8556;52.218;9.884;2023-07-09T04:27:35;19.40;99.90
16879;DHT22;8556;52.218;9.884;2023-07-09T04:30:04;19.90;99.90
16879;DHT22;8556;52.218;9.884;2023-07-09T04:32:31;20.20;99.90
16879;DHT22;8556;52.218;9.884;2023-07-09T04:34:58;20.00;99.90
16879;DHT22;8556;52.218;9.884;2023-07-09T04:37:25;19.10;99.90
16879;DHT22;8556;52.218;9.884;2023-07-09T04:39:52;18.60;99.90
16879;DHT22;8556;52.218;9.884;2023-07-09T04:42:18;18.60;99.90
16879;DHT22;8556;52.218;9.884;2023-07-09T04:44:46;18.40;99.90
16879;DHT22;8556;52.218;9.884;2023-07-09T04:47:14;18.30;99.90
16879;DHT22;8556;52.218;9.884;2023-07-09T04:49:41;18.60;99.90
16879;DHT22;8556;52.218;9.884;2023-07-09T04:52:08;18.70;99.90
16879;DHT22;8556;52.218;9.884;2023-07-09T04:54:40;18.60;99.90
16879;DHT22;8556;52.218;9.884;2023-07-09T04:57:09;18.50;99.90
16879;DHT22;8556;52.218;9.884;2023-07-09T04:59:35;18.50;99.90
16879;DHT22;8556;52.218;9.884;2023-07-09T05:02:03;18.50;99.90
16879;DHT22;8556;52.218;9.884;2023-07-09T05:04:31;18.60;99.90
16879;DHT22;8556;52.218;9.884;2023-07-09T05:06:58;18.60;99.90
16879;DHT22;8556;52.218;9.884;2023-07-09T05:09:26;18.60;99.90
16879;DHT22;8556;52.218;9.884;2023-07-09T05:11:53;18.80;99.90
16879;DHT22;8556;52.218;9.884;2023-07-09T05:14:23;18.80;99.90
16879;DHT22;8556;52.218;9.884;2023-07-09T05:16:52;19.10;99.90
16879;DHT22;8556;52.218;9.884;2023-07-09T05:19:20;19.30;99.90
16879;DHT22;8556;52.218;9.884;2023-07-09T05:21:48;19.20;99.90
16879;DHT22;8556;52.218;9.884;2023-07-09T05:24:15;19.10;99.90
16879;DHT22;8556;52.218;9.884;2023-07-09T05:26:43;19.10;99.90
16879;DHT22;8556;52.218;9.884;2023-07-09T05:29:11;19.30;99.90
16879;DHT22;8556;52.218;9.884;2023-07-09T05:31:38;19.40;99.90
16879;DHT22;8556;52.218;9.884;2023-07-09T05:34:07;19.50;99.90
16879;DHT22;8556;52.218;9.884;2023-07-09T05:36:35;19.70;99.90
16879;DHT22;8556;52.218;9.884;2023-07-09T05:39:04;19.80;99.90
16879;DHT22;8556;52.218;9.884;2023-07-09T05:41:31;19.80;99.90
16879;DHT22;8556;52.218;9.884;2023-07-09T05:43:59;20.00;99.90
16879;DHT22;8556;52.218;9.884;2023-07-09T05:46:26;20.70;99.90
16879;DHT22;8556;52.218;9.884;2023-07-09T05:48:53;21.40;99.90
16879;DHT22;8556;52.218;9.884;2023-07-09T05:51:20;21.20;99.90
16879;DHT22;8556;52.218;9.884;2023-07-09T05:53:49;21.30;99.90
16879;DHT22;8556;52.218;9.884;2023-07-09T05:56:18;21.30;99.90
16879;DHT22;8556;52.218;9.884;2023-07-09T05:58:45;21.80;99.90
16879;DHT22;8556;52.218;9.884;2023-07-09T06:01:13;21.30;99.90
16879;DHT22;8556;52.218;9.884;2023-07-09T06:03:40;21.00;99.90
16879;DHT22;8556;52.218;9.884;2023-07-09T06:06:09;21.00;99.90
16879;DHT22;8556;52.218;9.884;2023-07-09T06:08:36;21.00;99.90
16879;DHT22;8556;52.218;9.884;2023-07-09T06:11:04;21.10;99.90
16879;DHT22;8556;52.218;9.884;2023-07-09T06:13:33;21.10;99.90
16879;DHT22;8556;52.218;9.884;2023-07-09T06:16:00;21.10;99.90
16879;DHT22;8556;52.218;9.884;2023-07-09T06:18:27;21.10;99.90
16879;DHT22;8556;52.218;9.884;2023-07-09T06:20:57;21.40;99.90
16879;DHT22;8556;52.218;9.884;2023-07-09T06:23:25;21.50;99.90
16879;DHT22;8556;52.218;9.884;2023-07-09T06:25:52;21.40;99.90
16879;DHT22;8556;52.218;9.884;2023-07-09T06:28:22;21.50;99.90
16879;DHT22;8556;52.218;9.884;2023-07-09T06:30:51;21.50;99.90
16879;DHT22;8556;52.218;9.884;2023-07-09T06:33:19;21.60;99.90
16879;DHT22;8556;52.218;9.884;2023-07-09T06:35:47;21.70;99.90
16879;DHT22;8556;52.218;9.884;2023-07-09T06:38:14;21.80;99.90
16879;DHT22;8556;52.218;9.884;2023-07-09T06:40:41;21.80;99.90
16879;DHT22;8556;52.218;9.884;2023-07-09T06:43:08;21.90;99.90
16879;DHT22;8556;52.218;9.884;2023-07-09T06:45:35;22.00;99.90
16879;DHT22;8556;52.218;9.884;2023-07-09T06:48:04;22.00;99.90
16879;DHT22;8556;52.218;9.884;2023-07-09T06:50:33;22.20;99.90
16879;DHT22;8556;52.218;9.884;2023-07-09T06:52:59;22.20;99.90
16879;DHT22;8556;52.218;9.884;2023-07-09T06:55:26;22.30;99.90
16879;DHT22;8556;52.218;9.884;2023-07-09T06:57:53;22.40;99.90
16879;DHT22;8556;52.218;9.884;2023-07-09T07:00:20;22.50;99.90
16879;DHT22;8556;52.218;9.884;2023-07-09T07:02:47;22.60;99.90
16879;DHT22;8556;52.218;9.884;2023-07-09T07:05:16;22.70;99.90
16879;DHT22;8556;52.218;9.884;2023-07-09T07:07:44;22.80;99.90
16879;DHT22;8556;52.218;9.884;2023-07-09T07:10:11;22.90;99.90
16879;DHT22;8556;52.218;9.884;2023-07-09T07:12:42;23.10;99.90
16879;DHT22;8556;52.218;9.884;2023-07-09T07:15:10;23.20;99.90
16879;DHT22;8556;52.218;9.884;2023-07-09T07:17:38;23.20;99.90
16879;DHT22;8556;52.218;9.884;2023-07-09T07:20:08;23.30;99.90
16879;DHT22;8556;52.218;9.884;2023-07-09T07:22:37;23.40;99.90
16879;DHT22;8556;52.218;9.884;2023-07-09T07:25:05;23.50;99.90
16879;DHT22;8556;52.218;9.884;2023-07-09T07:27:33;23.60;99.90
16879;DHT22;8556;52.218;9.884;2023-07-09T07:30:00;23.70;99.90
16879;DHT22;8556;52.218;9.884;2023-07-09T07:32:27;23.70;99.90
16879;DHT22;8556;52.218;9.884;2023-07-09T07:34:54;23.70;99.90
16879;DHT22;8556;52.218;9.884;2023-07-09T07:37:21;23.80;99.90
16879;DHT22;8556;52.218;9.884;2023-07-09T07:39:49;23.90;99.90
16879;DHT22;8556;52.218;9.884;2023-07-09T07:42:17;24.00;99.90
16879;DHT22;8556;52.218;9.884;2023-07-09T07:44:45;24.00;99.90
16879;DHT22;8556;52.218;9.884;2023-07-09T07:47:12;24.10;99.90
16879;DHT22;8556;52.218;9.884;2023-07-09T07:49:39;24.30;99.90
16879;DHT22;8556;52.218;9.884;2023-07-09T07:52:07;24.40;99.90
16879;DHT22;8556;52.218;9.884;2023-07-09T07:54:34;24.40;99.90
16879;DHT22;8556;52.218;9.884;2023-07-09T07:57:02;24.50;99.90
16879;DHT22;8556;52.218;9.884;2023-07-09T07:59:29;24.50;99.90
16879;DHT22;8556;52.218;9.884;2023-07-09T08:02:00;24.50;99.90
16879;DHT22;8556;52.218;9.884;2023-07-09T08:04:27;24.50;99.90
16879;DHT22;8556;52.218;9.884;2023-07-09T08:06:53;24.70;99.90
16879;DHT22;8556;52.218;9.884;2023-07-09T08:09:20;25.00;99.90
16879;DHT22;8556;52.218;9.884;2023-07-09T08:11:47;25.00;99.90
16879;DHT22;8556;52.218;9.884;2023-07-09T08:14:16;25.00;99.90
16879;DHT22;8556;52.218;9.884;2023-07-09T08:16:42;25.00;99.90
16879;DHT22;8556;52.218;9.884;2023-07-09T08:19:09;25.00;99.90
16879;DHT22;8556;52.218;9.884;2023-07-09T08:21:36;25.10;99.90
16879;DHT22;8556;52.218;9.884;2023-07-09T08:24:04;25.30;99.90
16879;DHT22;8556;52.218;9.884;2023-07-09T08:26:31;25.40;99.90
16879;DHT22;8556;52.218;9.884;2023-07-09T08:28:58;25.50;99.90
16879;DHT22;8556;52.218;9.884;2023-07-09T08:31:26;25.50;99.90
16879;DHT22;8556;52.218;9.884;2023-07-09T08:33:53;25.50;99.90
16879;DHT22;8556;52.218;9.884;2023-07-09T08:36:20;25.70;99.90
16879;DHT22;8556;52.218;9.884;2023-07-09T08:38:46;25.80;99.90
16879;DHT22;8556;52.218;9.884;2023-07-09T08:41:24;25.90;99.90
16879;DHT22;8556;52.218;9.884;2023-07-09T08:43:59;26.00;99.90
16879;DHT22;8556;52.218;9.884;2023-07-09T08:46:37;25.90;99.90
16879;DHT22;8556;52.218;9.884;2023-07-09T08:49:16;25.90;99.90
16879;DHT22;8556;52.218;9.884;2023-07-09T08:51:45;26.10;99.90
16879;DHT22;8556;52.218;9.884;2023-07-09T08:54:25;26.30;99.90
16879;DHT22;8556;52.218;9.884;2023-07-09T08:56:54;26.60;99.90
16879;DHT22;8556;52.218;9.884;2023-07-09T08:59:22;26.90;99.90
16879;DHT22;8556;52.218;9.884;2023-07-09T09:01:52;27.20;99.90
16879;DHT22;8556;52.218;9.884;2023-07-09T09:04:24;27.30;99.90
16879;DHT22;8556;52.218;9.884;2023-07-09T09:06:59;27.40;99.90
16879;DHT22;8556;52.218;9.884;2023-07-09T09:09:32;27.60;99.90
16879;DHT22;8556;52.218;9.884;2023-07-09T09:12:08;27.70;99.90
16879;DHT22;8556;52.218;9.884;2023-07-09T09:14:42;28.10;99.90
16879;DHT22;8556;52.218;9.884;2023-07-09T09:17:13;28.10;99.90
16879;DHT22;8556;52.218;9.884;2023-07-09T09:19:46;28.40;99.90
16879;DHT22;8556;52.218;9.884;2023-07-09T09:22:17;28.70;99.90
16879;DHT22;8556;52.218;9.884;2023-07-09T09:24:55;28.60;99.90
16879;DHT22;8556;52.218;9.884;2023-07-09T09:27:24;28.90;99.90
16879;DHT22;8556;52.218;9.884;2023-07-09T09:29:51;28.80;99.90
16879;DHT22;8556;52.218;9.884;2023-07-09T09:32:23;28.90;99.90
16879;DHT22;8556;52.218;9.884;2023-07-09T09:34:50;29.10;99.90
16879;DHT22;8556;52.218;9.884;2023-07-09T09:37:24;29.20;99.90
16879;DHT22;8556;52.218;9.884;2023-07-09T09:39:51;29.10;99.90
16879;DHT22;8556;52.218;9.884;2023-07-09T09:42:18;29.40;99.90
16879;DHT22;8556;52.218;9.884;2023-07-09T09:44:45;29.40;99.90
16879;DHT22;8556;52.218;9.884;2023-07-09T09:47:12;29.50;99.90
16879;DHT22;8556;52.218;9.884;2023-07-09T09:49:42;29.50;99.90
16879;DHT22;8556;52.218;9.884;2023-07-09T09:52:13;30.00;99.90
16879;DHT22;8556;52.218;9.884;2023-07-09T09:54:41;30.30;99.90
16879;DHT22;8556;52.218;9.884;2023-07-09T09:57:16;30.20;99.90
16879;DHT22;8556;52.218;9.884;2023-07-09T09:59:44;30.30;99.90
16879;DHT22;8556;52.218;9.884;2023-07-09T10:02:16;30.30;99.90
16879;DHT22;8556;52.218;9.884;2023-07-09T10:04:45;30.80;99.90
16879;DHT22;8556;52.218;9.884;2023-07-09T10:07:20;31.00;99.90
16879;DHT22;8556;52.218;9.884;2023-07-09T10:09:50;31.00;99.90
16879;DHT22;8556;52.218;9.884;2023-07-09T10:12:28;30.90;99.90
16879;DHT22;8556;52.218;9.884;2023-07-09T10:15:13;31.00;99.90
16879;DHT22;8556;52.218;9.884;2023-07-09T10:17:46;31.10;99.90
16879;DHT22;8556;52.218;9.884;2023-07-09T10:20:23;31.00;99.90
16879;DHT22;8556;52.218;9.884;2023-07-09T10:22:55;31.00;99.90
16879;DHT22;8556;52.218;9.884;2023-07-09T10:25:35;31.20;99.90
16879;DHT22;8556;52.218;9.884;2023-07-09T10:31:04;31.00;99.90
16879;DHT22;8556;52.218;9.884;2023-07-09T10:33:39;31.40;99.90
16879;DHT22;8556;52.218;9.884;2023-07-09T10:36:21;31.20;99.90
16879;DHT22;8556;52.218;9.884;2023-07-09T10:38:53;31.00;99.90
16879;DHT22;8556;52.218;9.884;2023-07-09T10:41:22;31.30;99.90
16879;DHT22;8556;52.218;9.884;2023-07-09T10:43:53;31.60;99.90
16879;DHT22;8556;52.218;9.884;2023-07-09T10:46:25;31.50;69.10
16879;DHT22;8556;52.218;9.884;2023-07-09T10:48:55;31.70;97.90
16879;DHT22;8556;52.218;9.884;2023-07-09T10:51:26;31.40;88.10
16879;DHT22;8556;52.218;9.884;2023-07-09T10:53:57;31.40;52.50
16879;DHT22;8556;52.218;9.884;2023-07-09T10:56:26;31.80;46.20
16879;DHT22;8556;52.218;9.884;2023-07-09T10:58:57;32.50;81.90
16879;DHT22;8556;52.218;9.884;2023-07-09T11:01:31;32.20;45.70
16879;DHT22;8556;52.218;9.884;2023-07-09T11:04:02;31.80;67.20
16879;DHT22;8556;52.218;9.884;2023-07-09T11:06:36;31.80;52.10
16879;DHT22;8556;52.218;9.884;2023-07-09T11:09:07;31.80;39.90
16879;DHT22;8556;52.218;9.884;2023-07-09T11:11:42;31.90;74.90
16879;DHT22;8556;52.218;9.884;2023-07-09T11:14:21;32.10;61.80
16879;DHT22;8556;52.218;9.884;2023-07-09T11:16:49;32.40;62.90
16879;DHT22;8556;52.218;9.884;2023-07-09T11:19:18;32.10;33.40
16879;DHT22;8556;52.218;9.884;2023-07-09T11:21:58;32.40;21.60
16879;DHT22;8556;52.218;9.884;2023-07-09T11:24:35;32.40;50.70
16879;DHT22;8556;52.218;9.884;2023-07-09T11:27:02;32.30;65.40
16879;DHT22;8556;52.218;9.884;2023-07-09T11:29:46;33.00;30.00
16879;DHT22;8556;52.218;9.884;2023-07-09T11:32:18;33.10;4.40
16879;DHT22;8556;52.218;9.884;2023-07-09T11:34:46;32.40;53.20
16879;DHT22;8556;52.218;9.884;2023-07-09T11:37:15;33.10;43.10
16879;DHT22;8556;52.218;9.884;2023-07-09T11:39:44;32.70;29.90
16879;DHT22;8556;52.218;9.884;2023-07-09T11:42:29;32.80;43.00
16879;DHT22;8556;52.218;9.884;2023-07-09T11:45:02;32.60;26.40
16879;DHT22;8556;52.218;9.884;2023-07-09T11:47:33;32.50;54.20
16879;DHT22;8556;52.218;9.884;2023-07-09T11:50:03;32.40;23.90
16879;DHT22;8556;52.218;9.884;2023-07-09T11:52:35;32.20;17.40
16879;DHT22;8556;52.218;9.884;2023-07-09T11:55:19;32.20;1.00
16879;DHT22;8556;52.218;9.884;2023-07-09T11:57:47;32.40;1.00
16879;DHT22;8556;52.218;9.884;2023-07-09T12:00:15;32.30;1.00
16879;DHT22;8556;52.218;9.884;2023-07-09T12:02:42;32.50;1.00
16879;DHT22;8556;52.218;9.884;2023-07-09T12:05:10;32.60;21.80
16879;DHT22;8556;52.218;9.884;2023-07-09T12:07:38;32.70;1.00
16879;DHT22;8556;52.218;9.884;2023-07-09T12:10:17;32.70;1.00
16879;DHT22;8556;52.218;9.884;2023-07-09T12:12:45;32.60;1.00
16879;DHT22;8556;52.218;9.884;2023-07-09T12:15:17;32.80;1.00
16879;DHT22;8556;52.218;9.884;2023-07-09T12:17:52;32.50;1.00
16879;DHT22;8556;52.218;9.884;2023-07-09T12:20:20;32.50;1.00
16879;DHT22;8556;52.218;9.884;2023-07-09T12:22:48;32.50;1.00
16879;DHT22;8556;52.218;9.884;2023-07-09T12:25:22;32.70;1.00
16879;DHT22;8556;52.218;9.884;2023-07-09T12:27:50;32.70;1.00
16879;DHT22;8556;52.218;9.884;2023-07-09T12:30:17;32.80;1.00
16879;DHT22;8556;52.218;9.884;2023-07-09T12:32:46;32.70;1.00
16879;DHT22;8556;52.218;9.884;2023-07-09T12:35:15;32.90;1.00
16879;DHT22;8556;52.218;9.884;2023-07-09T12:37:43;32.90;1.00
16879;DHT22;8556;52.218;9.884;2023-07-09T12:40:17;32.90;1.00
16879;DHT22;8556;52.218;9.884;2023-07-09T12:42:46;32.80;1.00
16879;DHT22;8556;52.218;9.884;2023-07-09T12:45:15;33.30;1.00
16879;DHT22;8556;52.218;9.884;2023-07-09T12:47:43;33.00;1.00
16879;DHT22;8556;52.218;9.884;2023-07-09T12:50:19;32.70;1.00
16879;DHT22;8556;52.218;9.884;2023-07-09T12:52:47;33.00;1.00
16879;DHT22;8556;52.218;9.884;2023-07-09T12:55:23;33.00;1.00
16879;DHT22;8556;52.218;9.884;2023-07-09T12:57:50;33.30;1.00
16879;DHT22;8556;52.218;9.884;2023-07-09T13:00:18;33.20;1.00
16879;DHT22;8556;52.218;9.884;2023-07-09T13:02:53;33.00;1.00
16879;DHT22;8556;52.218;9.884;2023-07-09T13:05:22;33.30;1.00
16879;DHT22;8556;52.218;9.884;2023-07-09T13:07:51;33.40;1.00
16879;DHT22;8556;52.218;9.884;2023-07-09T13:10:23;33.10;1.00
16879;DHT22;8556;52.218;9.884;2023-07-09T13:12:52;33.30;1.00
16879;DHT22;8556;52.218;9.884;2023-07-09T13:15:26;34.20;1.00
16879;DHT22;8556;52.218;9.884;2023-07-09T13:18:00;33.90;1.00
16879;DHT22;8556;52.218;9.884;2023-07-09T13:20:29;33.90;1.00
16879;DHT22;8556;52.218;9.884;2023-07-09T13:22:56;33.10;1.00
16879;DHT22;8556;52.218;9.884;2023-07-09T13:25:25;33.20;1.00
16879;DHT22;8556;52.218;9.884;2023-07-09T13:27:53;33.40;1.00
16879;DHT22;8556;52.218;9.884;2023-07-09T13:30:20;33.00;1.00
16879;DHT22;8556;52.218;9.884;2023-07-09T13:32:48;33.10;1.00
16879;DHT22;8556;52.218;9.884;2023-07-09T13:35:16;33.30;1.00
16879;DHT22;8556;52.218;9.884;2023-07-09T13:37:44;33.30;1.00
16879;DHT22;8556;52.218;9.884;2023-07-09T13:40:13;33.20;1.00
16879;DHT22;8556;52.218;9.884;2023-07-09T13:42:42;33.10;1.00
16879;DHT22;8556;52.218;9.884;2023-07-09T13:45:21;33.30;1.00
16879;DHT22;8556;52.218;9.884;2023-07-09T13:47:48;33.10;1.00
16879;DHT22;8556;52.218;9.884;2023-07-09T13:50:15;33.10;1.00
16879;DHT22;8556;52.218;9.884;2023-07-09T13:52:43;33.00;1.00
16879;DHT22;8556;52.218;9.884;2023-07-09T13:55:17;33.00;1.00
16879;DHT22;8556;52.218;9.884;2023-07-09T13:57:46;33.00;1.00
16879;DHT22;8556;52.218;9.884;2023-07-09T14:00:13;33.10;1.00
16879;DHT22;8556;52.218;9.884;2023-07-09T14:02:40;33.00;1.00
16879;DHT22;8556;52.218;9.884;2023-07-09T14:05:09;33.00;1.00
16879;DHT22;8556;52.218;9.884;2023-07-09T14:07:39;33.10;1.00
16879;DHT22;8556;52.218;9.884;2023-07-09T14:10:12;33.00;1.00
16879;DHT22;8556;52.218;9.884;2023-07-09T14:12:46;32.80;1.00
16879;DHT22;8556;52.218;9.884;2023-07-09T14:15:15;33.10;1.00
16879;DHT22;8556;52.218;9.884;2023-07-09T14:17:45;33.10;1.00
16879;DHT22;8556;52.218;9.884;2023-07-09T14:20:14;32.90;1.00
16879;DHT22;8556;52.218;9.884;2023-07-09T14:22:42;32.80;1.00
16879;DHT22;8556;52.218;9.884;2023-07-09T14:25:16;33.20;1.00
16879;DHT22;8556;52.218;9.884;2023-07-09T14:27:44;33.30;1.00
16879;DHT22;8556;52.218;9.884;2023-07-09T14:30:15;33.30;1.00
16879;DHT22;8556;52.218;9.884;2023-07-09T14:32:43;33.30;1.00
16879;DHT22;8556;52.218;9.884;2023-07-09T14:35:13;33.20;1.00
16879;DHT22;8556;52.218;9.884;2023-07-09T14:37:41;33.30;1.00
16879;DHT22;8556;52.218;9.884;2023-07-09T14:40:09;33.10;1.00
16879;DHT22;8556;52.218;9.884;2023-07-09T14:42:37;32.90;1.00
16879;DHT22;8556;52.218;9.884;2023-07-09T14:45:05;33.10;1.00
16879;DHT22;8556;52.218;9.884;2023-07-09T14:47:33;32.80;1.00
16879;DHT22;8556;52.218;9.884;2023-07-09T14:50:00;33.00;1.00
16879;DHT22;8556;52.218;9.884;2023-07-09T14:52:30;33.00;1.00
16879;DHT22;8556;52.218;9.884;2023-07-09T14:54:57;32.90;1.00
16879;DHT22;8556;52.218;9.884;2023-07-09T14:57:25;32.70;1.00
16879;DHT22;8556;52.218;9.884;2023-07-09T14:59:53;32.50;1.00
16879;DHT22;8556;52.218;9.884;2023-07-09T15:02:23;32.60;1.00
16879;DHT22;8556;52.218;9.884;2023-07-09T15:04:52;32.60;1.00
16879;DHT22;8556;52.218;9.884;2023-07-09T15:07:20;32.70;1.00
16879;DHT22;8556;52.218;9.884;2023-07-09T15:09:47;32.70;1.00
16879;DHT22;8556;52.218;9.884;2023-07-09T15:12:17;32.70;1.00
16879;DHT22;8556;52.218;9.884;2023-07-09T15:14:44;33.10;1.00
16879;DHT22;8556;52.218;9.884;2023-07-09T15:17:11;32.80;1.00
16879;DHT22;8556;52.218;9.884;2023-07-09T15:19:39;32.70;1.00
16879;DHT22;8556;52.218;9.884;2023-07-09T15:22:17;32.70;1.00
16879;DHT22;8556;52.218;9.884;2023-07-09T15:24:45;32.60;1.00
16879;DHT22;8556;52.218;9.884;2023-07-09T15:27:13;32.50;1.00
16879;DHT22;8556;52.218;9.884;2023-07-09T15:29:40;32.40;1.00
16879;DHT22;8556;52.218;9.884;2023-07-09T15:32:07;32.40;1.00
16879;DHT22;8556;52.218;9.884;2023-07-09T15:34:33;32.30;1.00
16879;DHT22;8556;52.218;9.884;2023-07-09T15:37:00;32.40;1.00
16879;DHT22;8556;52.218;9.884;2023-07-09T15:39:29;32.30;1.00
16879;DHT22;8556;52.218;9.884;2023-07-09T15:41:56;32.30;1.00
16879;DHT22;8556;52.218;9.884;2023-07-09T15:44:23;32.40;1.00
16879;DHT22;8556;52.218;9.884;2023-07-09T15:46:51;32.40;1.00
16879;DHT22;8556;52.218;9.884;2023-07-09T15:49:20;32.20;1.00
16879;DHT22;8556;52.218;9.884;2023-07-09T15:51:47;32.20;1.00
16879;DHT22;8556;52.218;9.884;2023-07-09T15:54:15;32.10;1.00
16879;DHT22;8556;52.218;9.884;2023-07-09T15:56:44;32.00;1.00
16879;DHT22;8556;52.218;9.884;2023-07-09T15:59:24;31.90;1.00
16879;DHT22;8556;52.218;9.884;2023-07-09T16:01:51;31.80;1.00
16879;DHT22;8556;52.218;9.884;2023-07-09T16:04:18;31.80;1.00
16879;DHT22;8556;52.218;9.884;2023-07-09T16:06:45;31.70;1.00